createdAt,value
2022-10-26T00:00:22.560Z,10.31
2022-10-26T00:01:24.459Z,10.33
2022-10-26T00:02:26.077Z,10.31
2022-10-26T00:03:27.596Z,10.32
2022-10-26T00:04:29.037Z,10.31
2022-10-26T00:05:33.127Z,10.32
2022-10-26T00:06:34.898Z,10.31
2022-10-26T00:07:36.408Z,10.27
2022-10-26T00:08:38.318Z,10.28
2022-10-26T00:09:39.747Z,10.28
2022-10-26T00:10:41.175Z,10.28
2022-10-26T00:11:42.625Z,10.25
2022-10-26T00:12:44.038Z,10.20
2022-10-26T00:13:46.809Z,10.20
2022-10-26T00:14:48.214Z,10.17
2022-10-26T00:15:49.648Z,10.13
2022-10-26T00:16:51.399Z,10.07
2022-10-26T00:17:52.887Z,10.05
2022-10-26T00:18:55.043Z,10.06
2022-10-26T00:19:57.817Z,10.07
2022-10-26T00:21:04.475Z,10.07
2022-10-26T00:22:05.880Z,10.09
2022-10-26T00:23:07.271Z,10.07
2022-10-26T00:24:08.717Z,10.04
2022-10-26T00:25:10.250Z,10.05
2022-10-26T00:26:12.096Z,10.06
2022-10-26T00:27:13.605Z,10.08
2022-10-26T00:28:15.016Z,10.05
2022-10-26T00:29:18.343Z,10.04
2022-10-26T00:30:19.758Z,10.02
2022-10-26T00:31:21.567Z,10.00
2022-10-26T00:32:22.995Z,10.00
2022-10-26T00:33:24.409Z,9.99
2022-10-26T00:34:25.818Z,9.96
2022-10-26T00:35:41.367Z,9.97
2022-10-26T00:36:47.506Z,9.98
2022-10-26T00:37:49.085Z,9.97
2022-10-26T00:38:55.077Z,9.97
2022-10-26T00:39:56.555Z,9.95
2022-10-26T00:42:04.673Z,9.93
2022-10-26T00:43:33.752Z,9.95
2022-10-26T00:45:01.148Z,9.93
2022-10-26T00:46:06.735Z,9.92
2022-10-26T00:47:34.597Z,9.93
2022-10-26T00:48:40.798Z,9.94
2022-10-26T00:49:46.631Z,9.96
2022-10-26T00:50:48.866Z,9.99
2022-10-26T00:51:53.458Z,9.98
2022-10-26T00:52:57.521Z,9.99
2022-10-26T00:54:03.006Z,9.99
2022-10-26T00:55:06.094Z,9.99
2022-10-26T00:56:08.629Z,9.97
2022-10-26T00:57:11.476Z,9.97
2022-10-26T00:58:14.238Z,9.97
2022-10-26T00:59:17.567Z,9.96
2022-10-26T01:00:19.394Z,9.96
2022-10-26T01:01:21.277Z,9.96
2022-10-26T01:02:22.795Z,9.96
2022-10-26T01:03:28.153Z,9.96
2022-10-26T01:04:29.676Z,9.95
2022-10-26T01:05:32.958Z,9.95
2022-10-26T01:06:37.264Z,9.96
2022-10-26T01:07:39.328Z,9.96
2022-10-26T01:08:42.939Z,9.96
2022-10-26T01:09:44.422Z,9.97
2022-10-26T01:10:46.326Z,9.97
2022-10-26T01:11:47.785Z,9.97
2022-10-26T01:12:49.427Z,9.96
2022-10-26T01:13:54.480Z,9.96
2022-10-26T01:14:56.059Z,9.97
2022-10-26T01:16:32.989Z,9.96
2022-10-26T01:17:50.847Z,9.97
2022-10-26T01:19:05.202Z,9.99
2022-10-26T01:20:28.306Z,10.00
2022-10-26T01:21:45.778Z,10.00
2022-10-26T01:22:50.050Z,10.01
2022-10-26T01:24:08.821Z,10.04
2022-10-26T01:25:22.753Z,10.06
2022-10-26T01:26:45.622Z,10.07
2022-10-26T01:27:52.739Z,10.10
2022-10-26T01:28:59.871Z,10.11
2022-10-26T01:30:19.853Z,10.13
2022-10-26T01:31:32.398Z,10.15
2022-10-26T01:32:52.903Z,10.16
2022-10-26T01:34:13.618Z,10.19
2022-10-26T01:35:40.121Z,10.24
2022-10-26T01:36:48.089Z,10.27
2022-10-26T01:38:13.587Z,10.31
2022-10-26T01:39:21.613Z,10.30
2022-10-26T01:40:29.890Z,10.30
2022-10-26T01:41:36.631Z,10.33
2022-10-26T01:42:44.660Z,10.37
2022-10-26T01:44:09.338Z,10.40
2022-10-26T01:45:13.225Z,10.38
2022-10-26T01:46:17.467Z,10.39
2022-10-26T01:47:21.335Z,10.40
2022-10-26T01:48:23.933Z,10.46
2022-10-26T01:49:34.746Z,10.47
2022-10-26T01:50:37.388Z,10.45
2022-10-26T01:51:42.650Z,10.45
2022-10-26T01:52:44.168Z,10.45
2022-10-26T01:53:49.124Z,10.47
2022-10-26T01:54:50.611Z,10.49
2022-10-26T01:55:54.209Z,10.50
2022-10-26T01:57:01.134Z,10.52
2022-10-26T01:58:28.067Z,10.55
2022-10-26T02:00:03.065Z,10.55
2022-10-26T02:01:14.116Z,10.56
2022-10-26T02:02:30.206Z,10.59
2022-10-26T02:03:45.805Z,10.57
2022-10-26T02:05:06.054Z,10.58
2022-10-26T02:06:24.926Z,10.58
2022-10-26T02:07:49.581Z,10.60
2022-10-26T02:09:02.628Z,10.59
2022-10-26T02:10:38.189Z,10.58
2022-10-26T02:11:41.499Z,10.59
2022-10-26T02:13:07.516Z,10.59
2022-10-26T02:14:38.989Z,10.56
2022-10-26T02:15:54.933Z,10.55
2022-10-26T02:17:07.790Z,10.56
2022-10-26T02:18:24.567Z,10.57
2022-10-26T02:19:44.513Z,10.59
2022-10-26T02:20:51.767Z,10.61
2022-10-26T02:22:01.955Z,10.60
2022-10-26T02:23:07.533Z,10.61
2022-10-26T02:24:12.446Z,10.62
2022-10-26T02:25:27.725Z,10.64
2022-10-26T02:26:30.878Z,10.62
2022-10-26T02:27:37.542Z,10.62
2022-10-26T02:28:44.821Z,10.64
2022-10-26T02:29:49.328Z,10.66
2022-10-26T02:30:54.382Z,10.69
2022-10-26T02:31:57.085Z,10.71
2022-10-26T02:32:59.719Z,10.72
2022-10-26T02:34:05.500Z,10.72
2022-10-26T02:35:07.209Z,10.73
2022-10-26T02:36:13.810Z,10.74
2022-10-26T02:37:19.919Z,10.74
2022-10-26T02:38:22.783Z,10.74
2022-10-26T02:39:26.325Z,10.75
2022-10-26T02:40:29.470Z,10.75
2022-10-26T02:41:32.668Z,10.76
2022-10-26T02:42:35.041Z,10.75
2022-10-26T02:43:41.677Z,10.75
2022-10-26T02:44:53.700Z,10.73
2022-10-26T02:46:00.188Z,10.72
2022-10-26T02:47:02.667Z,10.68
2022-10-26T02:48:05.255Z,10.70
2022-10-26T02:49:06.863Z,10.70
2022-10-26T02:50:08.782Z,10.73
2022-10-26T02:51:16.849Z,10.76
2022-10-26T02:52:55.591Z,10.82
2022-10-26T02:54:04.440Z,10.81
2022-10-26T02:55:14.771Z,10.84
2022-10-26T02:56:29.665Z,10.85
2022-10-26T02:57:41.333Z,10.87
2022-10-26T02:58:47.988Z,10.87
2022-10-26T02:59:50.532Z,10.90
2022-10-26T03:00:52.955Z,10.91
2022-10-26T03:01:55.963Z,10.91
2022-10-26T03:02:59.221Z,10.91
2022-10-26T03:04:00.740Z,10.90
2022-10-26T03:05:20.266Z,10.89
2022-10-26T03:06:23.223Z,10.84
2022-10-26T03:07:24.690Z,10.84
2022-10-26T03:08:26.344Z,10.83
2022-10-26T03:09:28.399Z,10.83
2022-10-26T03:10:30.583Z,10.81
2022-10-26T03:11:32.416Z,10.82
2022-10-26T03:12:33.842Z,10.83
2022-10-26T03:13:35.305Z,10.83
2022-10-26T03:14:36.754Z,10.80
2022-10-26T03:15:38.688Z,10.79
2022-10-26T03:16:40.493Z,10.74
2022-10-26T03:17:42.328Z,10.76
2022-10-26T03:18:43.951Z,10.77
2022-10-26T03:19:45.409Z,10.79
2022-10-26T03:20:46.951Z,10.81
2022-10-26T03:21:48.757Z,10.82
2022-10-26T03:22:50.204Z,10.84
2022-10-26T03:23:51.710Z,10.86
2022-10-26T03:24:53.160Z,10.86
2022-10-26T03:25:58.989Z,10.86
2022-10-26T03:27:02.273Z,10.87
2022-10-26T03:28:04.924Z,10.88
2022-10-26T03:29:06.484Z,10.88
2022-10-26T03:30:08.845Z,10.90
2022-10-26T03:31:10.797Z,10.86
2022-10-26T03:32:12.308Z,10.85
2022-10-26T03:33:14.024Z,10.87
2022-10-26T03:34:15.463Z,10.87
2022-10-26T03:35:16.904Z,10.85
2022-10-26T03:36:18.750Z,10.88
2022-10-26T03:37:20.227Z,10.88
2022-10-26T03:38:21.654Z,10.88
2022-10-26T03:39:23.108Z,10.90
2022-10-26T03:40:24.622Z,10.90
2022-10-26T03:41:26.470Z,10.91
2022-10-26T03:42:28.007Z,10.93
2022-10-26T03:43:29.527Z,10.96
2022-10-26T03:44:31.197Z,10.96
2022-10-26T03:45:32.714Z,10.98
2022-10-26T03:46:34.601Z,11.01
2022-10-26T03:47:46.139Z,11.03
2022-10-26T03:48:47.579Z,11.04
2022-10-26T03:49:49.081Z,11.03
2022-10-26T03:50:50.526Z,11.02
2022-10-26T03:51:52.280Z,11.01
2022-10-26T03:52:53.782Z,11.00
2022-10-26T03:53:55.222Z,11.00
2022-10-26T03:54:56.659Z,10.98
2022-10-26T03:55:58.100Z,10.96
2022-10-26T03:56:59.921Z,10.93
2022-10-26T03:58:01.494Z,10.94
2022-10-26T03:59:02.936Z,10.93
2022-10-26T04:00:04.811Z,10.93
2022-10-26T04:01:06.807Z,10.94
2022-10-26T04:02:08.384Z,10.97
2022-10-26T04:03:09.855Z,11.01
2022-10-26T04:04:11.379Z,11.04
2022-10-26T04:05:13.337Z,11.06
2022-10-26T04:06:17.758Z,11.07
2022-10-26T04:07:19.358Z,11.08
2022-10-26T04:08:20.845Z,11.11
2022-10-26T04:09:22.258Z,11.14
2022-10-26T04:10:25.674Z,11.13
2022-10-26T04:11:27.457Z,11.14
2022-10-26T04:12:28.849Z,11.15
2022-10-26T04:13:30.313Z,11.17
2022-10-26T04:14:31.783Z,11.18
2022-10-26T04:15:33.221Z,11.17
2022-10-26T04:16:34.987Z,11.20
2022-10-26T04:17:36.517Z,11.22
2022-10-26T04:18:38.058Z,11.21
2022-10-26T04:19:39.527Z,11.22
2022-10-26T04:20:42.200Z,11.23
2022-10-26T04:21:43.935Z,11.21
2022-10-26T04:22:45.364Z,11.23
2022-10-26T04:23:46.849Z,11.24
2022-10-26T04:24:49.305Z,11.26
2022-10-26T04:25:50.795Z,11.26
2022-10-26T04:26:52.543Z,11.26
2022-10-26T04:27:54.090Z,11.28
2022-10-26T04:28:55.643Z,11.29
2022-10-26T04:29:57.112Z,11.31
2022-10-26T04:30:58.582Z,11.33
2022-10-26T04:32:00.488Z,11.33
2022-10-26T04:33:02.838Z,11.33
2022-10-26T04:34:04.398Z,11.33
2022-10-26T04:35:06.164Z,11.34
2022-10-26T04:36:08.489Z,11.35
2022-10-26T04:37:09.978Z,11.36
2022-10-26T04:38:11.466Z,11.37
2022-10-26T04:39:12.959Z,11.37
2022-10-26T04:40:14.585Z,11.37
2022-10-26T04:41:16.452Z,11.35
2022-10-26T04:42:17.904Z,11.35
2022-10-26T04:43:19.330Z,11.37
2022-10-26T04:44:20.820Z,11.34
2022-10-26T04:45:22.332Z,11.33
2022-10-26T04:46:23.802Z,11.35
2022-10-26T04:47:25.304Z,11.36
2022-10-26T04:48:26.849Z,11.37
2022-10-26T04:49:28.373Z,11.34
2022-10-26T04:50:30.037Z,11.35
2022-10-26T04:51:31.509Z,11.37
2022-10-26T04:52:33.479Z,11.40
2022-10-26T04:53:35.229Z,11.40
2022-10-26T04:54:36.674Z,11.40
2022-10-26T04:55:38.222Z,11.41
2022-10-26T04:56:39.854Z,11.41
2022-10-26T04:57:44.723Z,11.41
2022-10-26T04:58:46.232Z,11.40
2022-10-26T04:59:47.688Z,11.39
2022-10-26T05:00:49.229Z,11.38
2022-10-26T05:01:51.118Z,11.40
2022-10-26T05:02:53.015Z,11.41
2022-10-26T05:03:54.834Z,11.40
2022-10-26T05:04:57.815Z,11.41
2022-10-26T05:06:00.112Z,11.43
2022-10-26T05:07:01.578Z,11.44
2022-10-26T05:08:04.225Z,11.45
2022-10-26T05:09:05.901Z,11.45
2022-10-26T05:10:08.764Z,11.46
2022-10-26T05:11:10.446Z,11.48
2022-10-26T05:12:11.921Z,11.46
2022-10-26T05:13:13.444Z,11.46
2022-10-26T05:14:15.077Z,11.46
2022-10-26T05:15:16.479Z,11.46
2022-10-26T05:16:18.059Z,11.46
2022-10-26T05:17:19.498Z,11.46
2022-10-26T05:18:22.370Z,11.46
2022-10-26T05:19:23.874Z,11.46
2022-10-26T05:20:30.269Z,11.48
2022-10-26T05:21:31.770Z,11.48
2022-10-26T05:22:33.218Z,11.50
2022-10-26T05:23:34.635Z,11.51
2022-10-26T05:24:36.091Z,11.51
2022-10-26T05:25:38.715Z,11.52
2022-10-26T05:26:40.212Z,11.51
2022-10-26T05:27:41.646Z,11.51
2022-10-26T05:28:43.090Z,11.51
2022-10-26T05:29:44.599Z,11.51
2022-10-26T05:30:47.029Z,11.51
2022-10-26T05:31:48.512Z,11.50
2022-10-26T05:32:56.977Z,11.51
2022-10-26T05:33:58.374Z,11.51
2022-10-26T05:34:59.789Z,11.53
2022-10-26T05:36:01.603Z,11.54
2022-10-26T05:37:03.047Z,11.54
2022-10-26T05:38:16.533Z,11.58
2022-10-26T05:39:18.166Z,11.57
2022-10-26T05:40:20.304Z,11.57
2022-10-26T05:41:22.070Z,11.58
2022-10-26T05:42:25.361Z,11.59
2022-10-26T05:43:27.250Z,11.60
2022-10-26T05:44:28.730Z,11.59
2022-10-26T05:45:30.671Z,11.61
2022-10-26T05:46:32.490Z,11.62
2022-10-26T05:47:41.354Z,11.63
2022-10-26T05:48:42.869Z,11.63
2022-10-26T05:49:44.347Z,11.64
2022-10-26T05:50:49.015Z,11.64
2022-10-26T05:51:50.474Z,11.65
2022-10-26T05:52:51.933Z,11.65
2022-10-26T05:53:56.325Z,11.67
2022-10-26T05:54:57.878Z,11.67
2022-10-26T05:56:00.025Z,11.67
2022-10-26T05:57:02.004Z,11.68
2022-10-26T05:58:03.769Z,11.67
2022-10-26T05:59:11.767Z,11.67
2022-10-26T06:00:24.916Z,11.68
2022-10-26T06:02:00.893Z,11.69
2022-10-26T06:03:23.998Z,11.69
2022-10-26T06:04:48.043Z,11.71
2022-10-26T06:06:00.673Z,11.73
2022-10-26T06:07:11.524Z,11.73
2022-10-26T06:08:13.293Z,11.74
2022-10-26T06:09:15.297Z,11.75
2022-10-26T06:10:17.162Z,11.75
2022-10-26T06:11:19.291Z,11.75
2022-10-26T06:12:21.057Z,11.75
2022-10-26T06:13:23.202Z,11.75
2022-10-26T06:14:25.157Z,11.74
2022-10-26T06:15:26.924Z,11.76
2022-10-26T06:16:53.347Z,11.77
2022-10-26T06:18:23.371Z,11.75
2022-10-26T06:19:36.437Z,11.78
2022-10-26T06:20:44.600Z,11.77
2022-10-26T06:22:01.138Z,11.76
2022-10-26T06:23:30.143Z,11.76
2022-10-26T06:25:01.590Z,11.75
2022-10-26T06:26:35.038Z,11.78
2022-10-26T06:28:04.512Z,11.79
2022-10-26T06:29:17.867Z,11.81
2022-10-26T06:30:23.213Z,11.83
2022-10-26T06:31:25.094Z,11.84
2022-10-26T06:32:27.146Z,11.83
2022-10-26T06:33:30.550Z,11.84
2022-10-26T06:34:36.182Z,11.86
2022-10-26T06:35:47.952Z,11.86
2022-10-26T06:36:50.814Z,11.87
2022-10-26T06:37:52.768Z,11.89
2022-10-26T06:39:08.446Z,11.88
2022-10-26T06:40:12.738Z,11.91
2022-10-26T06:41:16.663Z,11.92
2022-10-26T06:42:18.604Z,11.94
2022-10-26T06:43:31.012Z,11.93
2022-10-26T06:44:33.468Z,11.94
2022-10-26T06:45:36.756Z,11.97
2022-10-26T06:46:49.119Z,12.00
2022-10-26T06:48:02.582Z,12.01
2022-10-26T06:49:16.464Z,12.03
2022-10-26T06:50:27.787Z,12.02
2022-10-26T06:51:31.423Z,12.02
2022-10-26T06:52:58.367Z,12.03
2022-10-26T06:54:10.934Z,12.04
2022-10-26T06:55:16.553Z,12.05
2022-10-26T06:56:18.320Z,12.04
2022-10-26T06:57:22.439Z,12.05
2022-10-26T06:58:29.067Z,12.07
2022-10-26T06:59:47.802Z,12.08
2022-10-26T07:00:52.429Z,12.11
2022-10-26T07:01:54.370Z,12.10
2022-10-26T07:02:56.326Z,12.11
2022-10-26T07:03:57.791Z,12.15
2022-10-26T07:04:59.236Z,12.17
2022-10-26T07:06:00.672Z,12.17
2022-10-26T07:07:02.468Z,12.18
2022-10-26T07:08:04.989Z,12.20
2022-10-26T07:09:06.641Z,12.23
2022-10-26T07:10:08.687Z,12.26
2022-10-26T07:11:10.147Z,12.26
2022-10-26T07:12:12.062Z,12.29
2022-10-26T07:13:13.523Z,12.31
2022-10-26T07:14:14.992Z,12.33
2022-10-26T07:15:16.610Z,12.32
2022-10-26T07:16:18.114Z,12.38
2022-10-26T07:17:20.035Z,12.43
2022-10-26T07:18:21.479Z,12.43
2022-10-26T07:19:23.261Z,12.48
2022-10-26T07:20:24.835Z,12.57
2022-10-26T07:21:26.664Z,12.65
2022-10-26T07:22:28.486Z,12.72
2022-10-26T07:24:36.874Z,12.85
2022-10-26T07:25:40.082Z,12.90
2022-10-26T07:26:41.868Z,12.94
2022-10-26T07:27:43.372Z,12.97
2022-10-26T07:28:49.344Z,12.98
2022-10-26T07:29:50.992Z,12.97
2022-10-26T07:30:56.105Z,12.93
2022-10-26T07:31:58.116Z,12.94
2022-10-26T07:33:10.950Z,13.01
2022-10-26T07:34:12.395Z,13.06
2022-10-26T07:35:14.626Z,13.14
2022-10-26T07:36:16.099Z,13.07
2022-10-26T07:37:17.995Z,12.95
2022-10-26T07:38:19.648Z,12.98
2022-10-26T07:39:21.063Z,13.00
2022-10-26T07:41:28.905Z,13.06
2022-10-26T07:42:30.769Z,13.06
2022-10-26T07:43:32.360Z,13.02
2022-10-26T07:44:33.787Z,13.11
2022-10-26T07:45:36.725Z,13.14
2022-10-26T07:46:38.462Z,13.15
2022-10-26T07:47:39.870Z,13.12
2022-10-26T07:48:41.948Z,13.04
2022-10-26T07:49:43.448Z,13.00
2022-10-26T07:50:44.941Z,12.99
2022-10-26T07:51:46.745Z,12.95
2022-10-26T07:52:48.661Z,13.01
2022-10-26T07:53:50.329Z,13.10
2022-10-26T07:54:51.832Z,13.15
2022-10-26T07:55:57.579Z,13.22
2022-10-26T07:56:59.498Z,13.28
2022-10-26T07:58:01.481Z,13.29
2022-10-26T07:59:03.624Z,13.29
2022-10-26T08:00:07.351Z,13.25
2022-10-26T08:01:11.088Z,13.28
2022-10-26T08:02:13.031Z,13.29
2022-10-26T08:03:14.469Z,13.30
2022-10-26T08:04:16.743Z,13.36
2022-10-26T08:05:18.340Z,13.40
2022-10-26T08:06:21.395Z,13.39
2022-10-26T08:07:23.295Z,13.43
2022-10-26T08:08:24.835Z,13.47
2022-10-26T08:09:26.258Z,13.51
2022-10-26T08:10:27.674Z,13.54
2022-10-26T08:11:29.494Z,13.58
2022-10-26T08:12:30.994Z,13.57
2022-10-26T08:13:35.432Z,13.61
2022-10-26T08:14:36.871Z,13.53
2022-10-26T08:15:39.065Z,13.45
2022-10-26T08:16:41.001Z,13.51
2022-10-26T08:17:42.462Z,13.56
2022-10-26T08:18:43.971Z,13.55
2022-10-26T08:19:47.656Z,13.55
2022-10-26T08:20:49.199Z,13.59
2022-10-26T08:21:50.986Z,13.58
2022-10-26T08:22:53.077Z,13.52
2022-10-26T08:23:54.646Z,13.50
2022-10-26T08:24:56.275Z,13.53
2022-10-26T08:26:01.809Z,13.56
2022-10-26T08:27:03.685Z,13.62
2022-10-26T08:28:05.366Z,13.65
2022-10-26T08:29:06.872Z,13.64
2022-10-26T08:30:08.651Z,13.62
2022-10-26T08:31:10.071Z,13.59
2022-10-26T08:32:11.865Z,13.63
2022-10-26T08:33:13.280Z,13.63
2022-10-26T08:34:15.009Z,13.68
2022-10-26T08:35:16.530Z,13.72
2022-10-26T08:36:23.161Z,13.76
2022-10-26T08:37:24.947Z,13.75
2022-10-26T08:38:27.134Z,13.79
2022-10-26T08:39:30.627Z,13.83
2022-10-26T08:40:34.700Z,13.88
2022-10-26T08:41:47.839Z,13.91
2022-10-26T08:42:53.048Z,13.96
2022-10-26T08:44:07.728Z,13.96
2022-10-26T08:45:29.535Z,13.95
2022-10-26T08:46:40.440Z,14.00
2022-10-26T08:47:47.770Z,14.04
2022-10-26T08:48:55.798Z,14.11
2022-10-26T08:50:12.871Z,14.13
2022-10-26T08:51:25.482Z,14.15
2022-10-26T08:52:36.626Z,14.14
2022-10-26T08:53:47.683Z,14.10
2022-10-26T08:54:53.563Z,14.20
2022-10-26T08:56:01.804Z,14.28
2022-10-26T08:57:17.151Z,14.33
2022-10-26T08:58:22.869Z,14.34
2022-10-26T08:59:42.739Z,14.33
2022-10-26T09:00:48.721Z,14.38
2022-10-26T09:01:50.585Z,14.37
2022-10-26T09:02:53.716Z,14.32
2022-10-26T09:04:03.476Z,14.36
2022-10-26T09:05:22.365Z,14.25
2022-10-26T09:06:55.508Z,14.30
2022-10-26T09:08:04.403Z,14.31
2022-10-26T09:09:13.072Z,14.41
2022-10-26T09:10:51.339Z,14.44
2022-10-26T09:12:16.139Z,14.51
2022-10-26T09:13:29.964Z,14.55
2022-10-26T09:15:23.702Z,14.41
2022-10-26T09:16:46.263Z,14.38
2022-10-26T09:17:50.505Z,14.29
2022-10-26T09:19:02.756Z,14.31
2022-10-26T09:20:26.744Z,14.32
2022-10-26T09:21:47.598Z,14.44
2022-10-26T09:23:17.368Z,14.57
2022-10-26T09:24:32.690Z,14.65
2022-10-26T09:25:41.450Z,14.65
2022-10-26T09:26:55.223Z,14.75
2022-10-26T09:28:02.026Z,14.77
2022-10-26T09:29:06.922Z,14.84
2022-10-26T09:30:17.622Z,14.96
2022-10-26T09:31:19.720Z,14.95
2022-10-26T09:32:26.374Z,14.90
2022-10-26T09:33:30.192Z,14.95
2022-10-26T09:34:41.407Z,14.97
2022-10-26T09:35:50.974Z,14.98
2022-10-26T09:36:59.213Z,14.89
2022-10-26T09:38:16.753Z,14.84
2022-10-26T09:39:31.659Z,14.88
2022-10-26T09:40:46.463Z,14.94
2022-10-26T09:41:58.898Z,15.05
2022-10-26T09:43:16.870Z,15.13
2022-10-26T09:44:27.192Z,15.07
2022-10-26T09:45:41.586Z,15.14
2022-10-26T09:46:55.718Z,15.24
2022-10-26T09:48:06.726Z,15.31
2022-10-26T09:49:14.005Z,15.35
2022-10-26T09:50:24.652Z,15.44
2022-10-26T09:51:27.259Z,15.27
2022-10-26T09:52:29.114Z,15.23
2022-10-26T09:53:31.213Z,15.27
2022-10-26T09:54:32.707Z,15.34
2022-10-26T09:55:41.538Z,15.46
2022-10-26T09:56:51.735Z,15.56
2022-10-26T09:57:57.283Z,15.62
2022-10-26T09:59:04.495Z,15.65
2022-10-26T10:00:06.539Z,15.73
2022-10-26T10:01:36.827Z,15.71
2022-10-26T10:02:47.646Z,15.75
2022-10-26T10:04:10.412Z,15.75
2022-10-26T10:07:10.367Z,15.64
2022-10-26T10:08:15.219Z,15.50
2022-10-26T10:09:19.212Z,15.51
2022-10-26T10:10:22.888Z,15.42
2022-10-26T10:11:38.581Z,15.29
2022-10-26T10:12:40.131Z,15.27
2022-10-26T10:13:46.526Z,15.36
2022-10-26T10:14:59.336Z,15.41
2022-10-26T10:16:13.649Z,15.45
2022-10-26T10:17:23.163Z,15.47
2022-10-26T10:18:24.946Z,15.56
2022-10-26T10:19:31.929Z,15.65
2022-10-26T10:20:34.116Z,15.64
2022-10-26T10:21:44.849Z,15.70
2022-10-26T10:22:57.445Z,15.70
2022-10-26T10:23:58.951Z,15.65
2022-10-26T10:25:02.172Z,15.66
2022-10-26T10:26:07.175Z,15.80
2022-10-26T10:27:17.906Z,15.84
2022-10-26T10:28:25.726Z,15.88
2022-10-26T10:29:29.494Z,15.82
2022-10-26T10:30:33.928Z,15.67
2022-10-26T10:31:35.722Z,15.67
2022-10-26T10:32:40.592Z,15.66
2022-10-26T10:33:45.317Z,15.68
2022-10-26T10:34:51.489Z,15.73
2022-10-26T10:35:53.115Z,15.71
2022-10-26T10:36:55.234Z,15.67
2022-10-26T10:37:57.370Z,15.66
2022-10-26T10:38:59.920Z,15.56
2022-10-26T10:40:23.228Z,15.66
2022-10-26T10:41:28.648Z,15.72
2022-10-26T10:42:33.248Z,15.72
2022-10-26T10:43:34.806Z,15.79
2022-10-26T10:44:36.283Z,15.88
2022-10-26T10:45:38.296Z,15.89
2022-10-26T10:46:40.258Z,15.93
2022-10-26T10:48:47.543Z,15.84
2022-10-26T10:50:20.038Z,15.93
2022-10-26T10:51:25.389Z,15.99
2022-10-26T10:52:32.815Z,16.03
2022-10-26T10:53:50.996Z,16.02
2022-10-26T10:55:03.565Z,16.11
2022-10-26T10:56:26.292Z,16.18
2022-10-26T10:57:36.651Z,16.13
2022-10-26T10:58:59.597Z,16.11
2022-10-26T11:00:00.959Z,16.07
2022-10-26T11:01:02.925Z,16.05
2022-10-26T11:02:22.964Z,16.01
2022-10-26T11:03:39.949Z,15.91
2022-10-26T11:05:06.618Z,15.84
2022-10-26T11:06:24.742Z,15.83
2022-10-26T11:07:28.514Z,15.85
2022-10-26T11:08:43.011Z,15.84
2022-10-26T11:09:48.156Z,15.89
2022-10-26T11:11:01.052Z,15.94
2022-10-26T11:12:20.126Z,16.01
2022-10-26T11:13:29.781Z,15.94
2022-10-26T11:14:47.599Z,15.95
2022-10-26T11:15:56.661Z,15.99
2022-10-26T11:17:20.039Z,16.03
2022-10-26T11:18:31.092Z,16.05
2022-10-26T11:19:47.394Z,16.07
2022-10-26T11:22:00.577Z,16.18
2022-10-26T11:23:23.844Z,16.21
2022-10-26T11:24:31.287Z,16.21
2022-10-26T11:25:44.496Z,16.25
2022-10-26T11:27:02.361Z,16.23
2022-10-26T11:28:16.589Z,16.16
2022-10-26T11:29:39.486Z,16.08
2022-10-26T11:30:50.897Z,15.94
2022-10-26T11:31:58.796Z,15.96
2022-10-26T11:33:06.202Z,16.03
2022-10-26T11:34:15.515Z,16.12
2022-10-26T11:35:19.479Z,16.15
2022-10-26T11:36:26.246Z,16.17
2022-10-26T11:37:37.441Z,16.20
2022-10-26T11:38:56.870Z,16.21
2022-10-26T11:40:14.826Z,16.20
2022-10-26T11:41:25.808Z,16.22
2022-10-26T11:42:41.928Z,16.02
2022-10-26T11:43:48.795Z,15.96
2022-10-26T11:45:09.345Z,15.96
2022-10-26T11:46:18.946Z,16.00
2022-10-26T11:47:41.144Z,16.08
2022-10-26T11:49:04.756Z,16.18
2022-10-26T11:50:32.728Z,16.24
2022-10-26T11:51:49.643Z,16.28
2022-10-26T11:53:15.084Z,16.31
2022-10-26T11:54:28.112Z,16.32
2022-10-26T11:55:29.942Z,16.37
2022-10-26T11:56:37.039Z,16.43
2022-10-26T11:57:40.146Z,16.54
2022-10-26T11:58:42.886Z,16.60
2022-10-26T11:59:50.569Z,16.62
2022-10-26T12:00:58.313Z,16.71
2022-10-26T12:02:07.276Z,16.78
2022-10-26T12:03:12.499Z,16.80
2022-10-26T12:04:14.658Z,16.75
2022-10-26T12:05:16.158Z,16.73
2022-10-26T12:06:24.888Z,16.68
2022-10-26T12:07:30.905Z,16.64
2022-10-26T12:08:54.495Z,16.71
2022-10-26T12:09:57.373Z,16.70
2022-10-26T12:10:58.710Z,16.65
2022-10-26T12:12:10.231Z,16.72
2022-10-26T12:13:33.585Z,16.72
2022-10-26T12:14:43.166Z,16.78
2022-10-26T12:16:04.320Z,16.73
2022-10-26T12:17:12.527Z,16.73
2022-10-26T12:18:43.022Z,16.73
2022-10-26T12:19:49.789Z,16.70
2022-10-26T12:20:56.089Z,16.73
2022-10-26T12:21:58.081Z,16.71
2022-10-26T12:22:59.954Z,16.70
2022-10-26T12:24:22.546Z,16.65
2022-10-26T12:25:24.125Z,16.57
2022-10-26T12:26:28.506Z,16.58
2022-10-26T12:27:51.127Z,16.66
2022-10-26T12:29:01.621Z,16.72
2022-10-26T12:30:12.159Z,16.70
2022-10-26T12:31:36.874Z,16.63
2022-10-26T12:32:41.514Z,16.68
2022-10-26T12:33:51.585Z,16.59
2022-10-26T12:34:54.887Z,16.53
2022-10-26T12:35:56.457Z,16.45
2022-10-26T12:36:58.269Z,16.44
2022-10-26T12:38:01.249Z,16.48
2022-10-26T12:39:02.927Z,16.47
2022-10-26T12:40:32.593Z,16.55
2022-10-26T12:41:38.676Z,16.59
2022-10-26T12:42:43.703Z,16.59
2022-10-26T12:43:46.325Z,16.59
2022-10-26T12:44:48.337Z,16.65
2022-10-26T12:46:08.438Z,16.69
2022-10-26T12:47:11.153Z,16.75
2022-10-26T12:48:38.832Z,16.73
2022-10-26T12:50:06.016Z,16.77
2022-10-26T12:51:21.534Z,16.83
2022-10-26T12:52:32.943Z,16.81
2022-10-26T12:53:34.766Z,16.82
2022-10-26T12:54:45.527Z,16.90
2022-10-26T12:55:47.581Z,17.02
2022-10-26T12:56:58.306Z,17.10
2022-10-26T12:58:13.855Z,17.14
2022-10-26T12:59:21.035Z,17.21
2022-10-26T13:00:25.922Z,17.36
2022-10-26T13:01:39.215Z,17.50
2022-10-26T13:03:07.685Z,17.69
2022-10-26T13:04:18.666Z,17.72
2022-10-26T13:05:38.887Z,17.78
2022-10-26T13:07:18.675Z,17.90
2022-10-26T13:08:20.339Z,17.97
2022-10-26T13:09:27.594Z,17.99
2022-10-26T13:10:29.399Z,17.94
2022-10-26T13:11:38.420Z,17.91
2022-10-26T13:12:42.970Z,17.93
2022-10-26T13:13:52.220Z,17.86
2022-10-26T13:15:00.041Z,17.94
2022-10-26T13:16:02.689Z,17.97
2022-10-26T13:17:05.972Z,17.97
2022-10-26T13:18:25.860Z,18.04
2022-10-26T13:19:48.483Z,18.12
2022-10-26T13:21:04.831Z,18.15
2022-10-26T13:22:06.824Z,18.33
2022-10-26T13:23:26.517Z,18.58
2022-10-26T13:24:32.615Z,18.74
2022-10-26T13:25:34.288Z,19.03
2022-10-26T13:27:04.982Z,19.44
2022-10-26T13:28:27.906Z,19.40
2022-10-26T13:29:30.710Z,19.56
2022-10-26T13:30:35.737Z,19.77
2022-10-26T13:31:42.009Z,19.94
2022-10-26T13:32:50.376Z,20.07
2022-10-26T13:33:56.155Z,19.76
2022-10-26T13:35:01.230Z,19.52
2022-10-26T13:36:14.649Z,19.54
2022-10-26T13:37:19.192Z,19.53
2022-10-26T13:38:23.952Z,19.71
2022-10-26T13:39:55.764Z,20.27
2022-10-26T13:41:06.656Z,20.65
2022-10-26T13:42:15.628Z,20.89
2022-10-26T13:43:21.224Z,21.09
2022-10-26T13:44:30.894Z,20.83
2022-10-26T13:45:46.363Z,20.47
2022-10-26T13:46:54.918Z,20.82
2022-10-26T13:48:01.665Z,21.25
2022-10-26T13:49:17.685Z,21.73
2022-10-26T13:50:22.783Z,21.97
2022-10-26T13:51:38.486Z,22.18
2022-10-26T13:52:43.908Z,21.91
2022-10-26T13:54:07.556Z,21.56
2022-10-26T13:55:40.292Z,21.15
2022-10-26T13:56:54.494Z,21.35
2022-10-26T13:58:11.208Z,21.55
2022-10-26T13:59:13.713Z,21.96
2022-10-26T14:00:23.752Z,22.21
2022-10-26T14:01:27.213Z,22.53
2022-10-26T14:02:32.190Z,22.80
2022-10-26T14:03:33.688Z,22.67
2022-10-26T14:04:35.165Z,22.48
2022-10-26T14:05:42.101Z,22.81
2022-10-26T14:06:50.199Z,23.13
2022-10-26T14:08:00.796Z,22.99
2022-10-26T14:09:07.006Z,22.67
2022-10-26T14:10:32.895Z,22.62
2022-10-26T14:11:37.845Z,22.78
2022-10-26T14:12:39.400Z,23.10
2022-10-26T14:13:42.782Z,23.14
2022-10-26T14:14:44.587Z,23.28
2022-10-26T14:15:46.579Z,23.47
2022-10-26T14:16:50.482Z,23.55
2022-10-26T14:17:53.887Z,23.44
2022-10-26T14:18:55.580Z,23.65
2022-10-26T14:19:57.110Z,23.82
2022-10-26T14:21:01.042Z,23.76
2022-10-26T14:22:04.440Z,23.84
2022-10-26T14:23:05.943Z,24.02
2022-10-26T14:24:27.544Z,23.58
2022-10-26T14:25:42.255Z,22.80
2022-10-26T14:26:50.080Z,22.81
2022-10-26T14:27:52.629Z,23.09
2022-10-26T14:29:03.582Z,23.17
2022-10-26T14:30:23.099Z,23.23
2022-10-26T14:31:27.336Z,23.36
2022-10-26T14:32:32.198Z,23.43
2022-10-26T14:33:33.652Z,23.42
2022-10-26T14:34:35.156Z,23.05
2022-10-26T14:35:42.127Z,22.92